sensor_id;sensor_type;location;lat;lon;timestamp;P1;durP1;ratioP1;P2;durP2;ratioP2
10896;SDS011;5501;51.176;6.470;2022-12-17T00:02:38;46.53;;;20.05;;
10896;SDS011;5501;51.176;6.470;2022-12-17T00:07:59;49.35;;;19.02;;
10896;SDS011;5501;51.176;6.470;2022-12-17T00:13:19;43.70;;;19.38;;
10896;SDS011;5501;51.176;6.470;2022-12-17T00:18:40;44.30;;;18.13;;
10896;SDS011;5501;51.176;6.470;2022-12-17T00:23:59;44.85;;;20.23;;
10896;SDS011;5501;51.176;6.470;2022-12-17T00:29:20;35.38;;;18.35;;
10896;SDS011;5501;51.176;6.470;2022-12-17T00:34:40;51.88;;;21.00;;
10896;SDS011;5501;51.176;6.470;2022-12-17T00:40:00;43.95;;;20.25;;
10896;SDS011;5501;51.176;6.470;2022-12-17T00:45:20;46.53;;;18.40;;
10896;SDS011;5501;51.176;6.470;2022-12-17T00:50:40;49.58;;;19.75;;
10896;SDS011;5501;51.176;6.470;2022-12-17T00:56:00;39.65;;;20.50;;
10896;SDS011;5501;51.176;6.470;2022-12-17T01:01:20;44.15;;;19.80;;
10896;SDS011;5501;51.176;6.470;2022-12-17T01:06:40;47.45;;;19.30;;
10896;SDS011;5501;51.176;6.470;2022-12-17T01:12:03;49.28;;;20.13;;
10896;SDS011;5501;51.176;6.470;2022-12-17T01:17:23;39.15;;;18.45;;
10896;SDS011;5501;51.176;6.470;2022-12-17T01:22:44;43.58;;;19.38;;
10896;SDS011;5501;51.176;6.470;2022-12-17T01:28:04;47.70;;;20.73;;
10896;SDS011;5501;51.176;6.470;2022-12-17T01:33:24;53.25;;;20.73;;
10896;SDS011;5501;51.176;6.470;2022-12-17T01:38:44;38.83;;;18.80;;
10896;SDS011;5501;51.176;6.470;2022-12-17T01:49:52;48.92;;;19.45;;
10896;SDS011;5501;51.176;6.470;2022-12-17T01:55:13;45.63;;;20.50;;
10896;SDS011;5501;51.176;6.470;2022-12-17T02:00:33;52.03;;;21.02;;
10896;SDS011;5501;51.176;6.470;2022-12-17T02:05:59;46.58;;;18.60;;
10896;SDS011;5501;51.176;6.470;2022-12-17T02:17:05;42.30;;;19.35;;
10896;SDS011;5501;51.176;6.470;2022-12-17T02:22:31;51.90;;;20.17;;
10896;SDS011;5501;51.176;6.470;2022-12-17T02:27:55;40.58;;;16.95;;
10896;SDS011;5501;51.176;6.470;2022-12-17T02:33:15;41.05;;;18.13;;
10896;SDS011;5501;51.176;6.470;2022-12-17T02:38:36;39.47;;;16.90;;
10896;SDS011;5501;51.176;6.470;2022-12-17T02:43:59;33.05;;;17.67;;
10896;SDS011;5501;51.176;6.470;2022-12-17T02:49:21;45.97;;;19.90;;
10896;SDS011;5501;51.176;6.470;2022-12-17T02:54:41;36.42;;;16.63;;
10896;SDS011;5501;51.176;6.470;2022-12-17T03:00:02;47.83;;;17.08;;
10896;SDS011;5501;51.176;6.470;2022-12-17T03:05:22;39.17;;;18.23;;
10896;SDS011;5501;51.176;6.470;2022-12-17T03:10:46;43.70;;;18.55;;
10896;SDS011;5501;51.176;6.470;2022-12-17T03:16:07;41.25;;;18.27;;
10896;SDS011;5501;51.176;6.470;2022-12-17T03:21:34;39.83;;;18.23;;
10896;SDS011;5501;51.176;6.470;2022-12-17T03:26:54;41.88;;;18.83;;
10896;SDS011;5501;51.176;6.470;2022-12-17T03:32:14;40.88;;;15.95;;
10896;SDS011;5501;51.176;6.470;2022-12-17T03:37:34;48.33;;;19.17;;
10896;SDS011;5501;51.176;6.470;2022-12-17T03:42:54;41.63;;;19.27;;
10896;SDS011;5501;51.176;6.470;2022-12-17T03:48:14;41.15;;;15.73;;
10896;SDS011;5501;51.176;6.470;2022-12-17T03:53:34;33.67;;;15.57;;
10896;SDS011;5501;51.176;6.470;2022-12-17T03:58:54;41.90;;;16.48;;
10896;SDS011;5501;51.176;6.470;2022-12-17T04:04:14;33.13;;;14.90;;
10896;SDS011;5501;51.176;6.470;2022-12-17T04:09:34;36.25;;;14.85;;
10896;SDS011;5501;51.176;6.470;2022-12-17T04:14:55;28.38;;;14.30;;
10896;SDS011;5501;51.176;6.470;2022-12-17T04:20:15;28.70;;;13.35;;
10896;SDS011;5501;51.176;6.470;2022-12-17T04:25:35;25.63;;;13.70;;
10896;SDS011;5501;51.176;6.470;2022-12-17T04:30:55;33.40;;;14.32;;
10896;SDS011;5501;51.176;6.470;2022-12-17T04:36:15;29.63;;;13.68;;
10896;SDS011;5501;51.176;6.470;2022-12-17T04:41:35;24.48;;;12.38;;
10896;SDS011;5501;51.176;6.470;2022-12-17T04:46:55;29.08;;;12.77;;
10896;SDS011;5501;51.176;6.470;2022-12-17T04:52:15;22.23;;;12.18;;
10896;SDS011;5501;51.176;6.470;2022-12-17T04:57:35;31.75;;;14.82;;
10896;SDS011;5501;51.176;6.470;2022-12-17T05:03:02;35.88;;;14.73;;
10896;SDS011;5501;51.176;6.470;2022-12-17T05:08:22;29.27;;;13.88;;
10896;SDS011;5501;51.176;6.470;2022-12-17T05:13:42;25.88;;;11.93;;
10896;SDS011;5501;51.176;6.470;2022-12-17T05:19:02;22.63;;;11.27;;
10896;SDS011;5501;51.176;6.470;2022-12-17T05:24:22;23.35;;;13.30;;
10896;SDS011;5501;51.176;6.470;2022-12-17T05:29:42;22.30;;;12.05;;
10896;SDS011;5501;51.176;6.470;2022-12-17T05:35:02;28.25;;;14.20;;
10896;SDS011;5501;51.176;6.470;2022-12-17T05:40:22;27.17;;;13.40;;
10896;SDS011;5501;51.176;6.470;2022-12-17T05:45:43;25.70;;;13.15;;
10896;SDS011;5501;51.176;6.470;2022-12-17T05:51:03;21.38;;;11.45;;
10896;SDS011;5501;51.176;6.470;2022-12-17T05:56:23;22.73;;;11.90;;
10896;SDS011;5501;51.176;6.470;2022-12-17T06:01:43;19.45;;;10.13;;
10896;SDS011;5501;51.176;6.470;2022-12-17T06:07:03;26.52;;;11.75;;
10896;SDS011;5501;51.176;6.470;2022-12-17T06:12:23;23.98;;;11.38;;
10896;SDS011;5501;51.176;6.470;2022-12-17T06:17:51;27.05;;;12.95;;
10896;SDS011;5501;51.176;6.470;2022-12-17T06:23:17;29.42;;;13.85;;
10896;SDS011;5501;51.176;6.470;2022-12-17T06:28:38;23.58;;;12.38;;
10896;SDS011;5501;51.176;6.470;2022-12-17T06:33:57;29.48;;;13.05;;
10896;SDS011;5501;51.176;6.470;2022-12-17T06:39:17;24.88;;;12.65;;
10896;SDS011;5501;51.176;6.470;2022-12-17T06:44:37;23.38;;;12.27;;
10896;SDS011;5501;51.176;6.470;2022-12-17T06:49:57;22.90;;;11.25;;
10896;SDS011;5501;51.176;6.470;2022-12-17T06:55:17;21.38;;;11.43;;
10896;SDS011;5501;51.176;6.470;2022-12-17T07:00:38;24.17;;;12.48;;
10896;SDS011;5501;51.176;6.470;2022-12-17T07:06:00;25.15;;;10.98;;
10896;SDS011;5501;51.176;6.470;2022-12-17T07:11:21;22.80;;;9.88;;
10896;SDS011;5501;51.176;6.470;2022-12-17T07:16:41;22.10;;;9.57;;
10896;SDS011;5501;51.176;6.470;2022-12-17T07:22:01;19.58;;;9.45;;
10896;SDS011;5501;51.176;6.470;2022-12-17T07:27:21;23.02;;;10.07;;
10896;SDS011;5501;51.176;6.470;2022-12-17T07:32:41;19.50;;;10.40;;
10896;SDS011;5501;51.176;6.470;2022-12-17T07:38:01;21.08;;;12.18;;
10896;SDS011;5501;51.176;6.470;2022-12-17T07:43:21;23.55;;;10.77;;
10896;SDS011;5501;51.176;6.470;2022-12-17T07:48:42;19.50;;;11.50;;
10896;SDS011;5501;51.176;6.470;2022-12-17T07:54:01;19.15;;;10.70;;
10896;SDS011;5501;51.176;6.470;2022-12-17T07:59:22;25.60;;;10.15;;
10896;SDS011;5501;51.176;6.470;2022-12-17T08:04:42;21.75;;;10.20;;
10896;SDS011;5501;51.176;6.470;2022-12-17T08:10:02;25.95;;;11.15;;
10896;SDS011;5501;51.176;6.470;2022-12-17T08:15:22;20.52;;;10.38;;
10896;SDS011;5501;51.176;6.470;2022-12-17T08:20:42;23.48;;;10.10;;
10896;SDS011;5501;51.176;6.470;2022-12-17T08:26:02;24.27;;;11.85;;
10896;SDS011;5501;51.176;6.470;2022-12-17T08:31:22;28.25;;;13.77;;
10896;SDS011;5501;51.176;6.470;2022-12-17T08:36:43;26.08;;;13.38;;
10896;SDS011;5501;51.176;6.470;2022-12-17T08:42:05;32.78;;;14.27;;
10896;SDS011;5501;51.176;6.470;2022-12-17T08:47:25;24.08;;;11.82;;
10896;SDS011;5501;51.176;6.470;2022-12-17T08:52:45;26.85;;;13.93;;
10896;SDS011;5501;51.176;6.470;2022-12-17T08:58:06;36.65;;;17.25;;
10896;SDS011;5501;51.176;6.470;2022-12-17T09:03:26;26.25;;;14.75;;
10896;SDS011;5501;51.176;6.470;2022-12-17T09:08:46;33.72;;;14.20;;
10896;SDS011;5501;51.176;6.470;2022-12-17T09:14:06;28.05;;;11.38;;
10896;SDS011;5501;51.176;6.470;2022-12-17T09:19:26;28.63;;;12.30;;
10896;SDS011;5501;51.176;6.470;2022-12-17T09:24:46;31.80;;;13.30;;
10896;SDS011;5501;51.176;6.470;2022-12-17T09:30:07;25.73;;;13.48;;
10896;SDS011;5501;51.176;6.470;2022-12-17T09:35:27;33.08;;;13.70;;
10896;SDS011;5501;51.176;6.470;2022-12-17T09:40:47;33.40;;;14.45;;
10896;SDS011;5501;51.176;6.470;2022-12-17T09:46:11;28.17;;;15.80;;
10896;SDS011;5501;51.176;6.470;2022-12-17T09:51:33;34.90;;;15.18;;
10896;SDS011;5501;51.176;6.470;2022-12-17T09:56:54;36.42;;;16.98;;
10896;SDS011;5501;51.176;6.470;2022-12-17T10:02:23;26.73;;;12.55;;
10896;SDS011;5501;51.176;6.470;2022-12-17T10:07:43;38.00;;;16.27;;
10896;SDS011;5501;51.176;6.470;2022-12-17T10:13:14;40.67;;;16.27;;
10896;SDS011;5501;51.176;6.470;2022-12-17T10:18:35;36.33;;;15.55;;
10896;SDS011;5501;51.176;6.470;2022-12-17T10:24:03;36.25;;;16.80;;
10896;SDS011;5501;51.176;6.470;2022-12-17T10:29:24;30.58;;;13.63;;
10896;SDS011;5501;51.176;6.470;2022-12-17T10:34:48;31.50;;;13.77;;
10896;SDS011;5501;51.176;6.470;2022-12-17T10:40:26;29.98;;;14.82;;
10896;SDS011;5501;51.176;6.470;2022-12-17T10:45:53;45.67;;;18.25;;
10896;SDS011;5501;51.176;6.470;2022-12-17T10:51:24;39.10;;;15.68;;
10896;SDS011;5501;51.176;6.470;2022-12-17T10:56:51;36.67;;;14.98;;
10896;SDS011;5501;51.176;6.470;2022-12-17T11:02:15;29.58;;;13.95;;
10896;SDS011;5501;51.176;6.470;2022-12-17T11:07:36;26.63;;;13.32;;
10896;SDS011;5501;51.176;6.470;2022-12-17T11:12:58;38.90;;;14.75;;
10896;SDS011;5501;51.176;6.470;2022-12-17T11:18:31;39.75;;;16.33;;
10896;SDS011;5501;51.176;6.470;2022-12-17T11:23:55;24.38;;;12.35;;
10896;SDS011;5501;51.176;6.470;2022-12-17T11:29:32;27.40;;;12.73;;
10896;SDS011;5501;51.176;6.470;2022-12-17T11:45:51;28.35;;;14.93;;
10896;SDS011;5501;51.176;6.470;2022-12-17T11:51:48;28.25;;;14.25;;
10896;SDS011;5501;51.176;6.470;2022-12-17T11:57:14;31.17;;;15.02;;
10896;SDS011;5501;51.176;6.470;2022-12-17T12:18:46;29.70;;;14.20;;
10896;SDS011;5501;51.176;6.470;2022-12-17T12:34:54;33.47;;;16.50;;
10896;SDS011;5501;51.176;6.470;2022-12-17T12:56:35;29.52;;;15.93;;
10896;SDS011;5501;51.176;6.470;2022-12-17T13:01:55;24.92;;;13.38;;
10896;SDS011;5501;51.176;6.470;2022-12-17T13:07:27;31.42;;;12.40;;
10896;SDS011;5501;51.176;6.470;2022-12-17T13:17:37;27.98;;;16.00;;
10896;SDS011;5501;51.176;6.470;2022-12-17T13:22:47;32.42;;;17.10;;
10896;SDS011;5501;51.176;6.470;2022-12-17T13:27:49;25.73;;;14.43;;
10896;SDS011;5501;51.176;6.470;2022-12-17T13:33:05;34.17;;;15.88;;
10896;SDS011;5501;51.176;6.470;2022-12-17T13:38:15;35.75;;;16.98;;
10896;SDS011;5501;51.176;6.470;2022-12-17T13:43:20;38.75;;;16.73;;
10896;SDS011;5501;51.176;6.470;2022-12-17T13:48:23;31.42;;;16.60;;
10896;SDS011;5501;51.176;6.470;2022-12-17T13:53:25;37.53;;;16.60;;
10896;SDS011;5501;51.176;6.470;2022-12-17T13:58:28;27.42;;;15.55;;
10896;SDS011;5501;51.176;6.470;2022-12-17T14:03:30;33.88;;;16.55;;
10896;SDS011;5501;51.176;6.470;2022-12-17T14:08:52;31.73;;;15.80;;
10896;SDS011;5501;51.176;6.470;2022-12-17T14:13:55;33.97;;;17.17;;
10896;SDS011;5501;51.176;6.470;2022-12-17T14:18:56;29.85;;;15.07;;
10896;SDS011;5501;51.176;6.470;2022-12-17T14:23:58;32.75;;;17.20;;
10896;SDS011;5501;51.176;6.470;2022-12-17T14:28:59;34.20;;;15.75;;
10896;SDS011;5501;51.176;6.470;2022-12-17T14:34:04;30.50;;;15.68;;
10896;SDS011;5501;51.176;6.470;2022-12-17T14:39:18;31.90;;;15.82;;
10896;SDS011;5501;51.176;6.470;2022-12-17T14:44:25;31.55;;;15.70;;
10896;SDS011;5501;51.176;6.470;2022-12-17T14:49:27;29.40;;;15.00;;
10896;SDS011;5501;51.176;6.470;2022-12-17T14:54:28;33.22;;;14.80;;
10896;SDS011;5501;51.176;6.470;2022-12-17T14:59:37;30.20;;;16.02;;
10896;SDS011;5501;51.176;6.470;2022-12-17T15:04:38;39.97;;;16.97;;
10896;SDS011;5501;51.176;6.470;2022-12-17T15:09:40;28.98;;;15.18;;
10896;SDS011;5501;51.176;6.470;2022-12-17T15:14:42;24.20;;;14.80;;
10896;SDS011;5501;51.176;6.470;2022-12-17T15:19:43;26.75;;;13.05;;
10896;SDS011;5501;51.176;6.470;2022-12-17T15:24:46;24.75;;;12.57;;
10896;SDS011;5501;51.176;6.470;2022-12-17T15:29:47;30.42;;;12.57;;
10896;SDS011;5501;51.176;6.470;2022-12-17T15:34:49;22.17;;;13.50;;
10896;SDS011;5501;51.176;6.470;2022-12-17T15:39:51;22.23;;;12.93;;
10896;SDS011;5501;51.176;6.470;2022-12-17T15:44:53;40.58;;;14.25;;
10896;SDS011;5501;51.176;6.470;2022-12-17T15:49:54;36.13;;;17.38;;
10896;SDS011;5501;51.176;6.470;2022-12-17T15:54:56;61.50;;;23.08;;
10896;SDS011;5501;51.176;6.470;2022-12-17T15:59:57;49.17;;;21.55;;
10896;SDS011;5501;51.176;6.470;2022-12-17T16:04:59;28.60;;;13.18;;
10896;SDS011;5501;51.176;6.470;2022-12-17T16:10:00;28.35;;;14.13;;
10896;SDS011;5501;51.176;6.470;2022-12-17T16:15:06;24.73;;;12.68;;
10896;SDS011;5501;51.176;6.470;2022-12-17T16:20:08;21.35;;;12.60;;
10896;SDS011;5501;51.176;6.470;2022-12-17T16:25:09;27.98;;;14.45;;
10896;SDS011;5501;51.176;6.470;2022-12-17T16:30:11;31.80;;;14.57;;
10896;SDS011;5501;51.176;6.470;2022-12-17T16:35:13;31.02;;;13.07;;
10896;SDS011;5501;51.176;6.470;2022-12-17T16:40:14;31.45;;;14.73;;
10896;SDS011;5501;51.176;6.470;2022-12-17T16:45:15;27.00;;;14.35;;
10896;SDS011;5501;51.176;6.470;2022-12-17T16:50:17;28.92;;;13.32;;
10896;SDS011;5501;51.176;6.470;2022-12-17T16:55:18;24.23;;;12.38;;
10896;SDS011;5501;51.176;6.470;2022-12-17T17:00:19;29.10;;;14.25;;
10896;SDS011;5501;51.176;6.470;2022-12-17T17:05:21;24.08;;;12.70;;
10896;SDS011;5501;51.176;6.470;2022-12-17T17:10:22;28.88;;;11.90;;
10896;SDS011;5501;51.176;6.470;2022-12-17T17:15:23;25.20;;;12.63;;
10896;SDS011;5501;51.176;6.470;2022-12-17T17:20:25;29.35;;;12.68;;
10896;SDS011;5501;51.176;6.470;2022-12-17T17:25:26;27.58;;;15.05;;
10896;SDS011;5501;51.176;6.470;2022-12-17T17:30:48;26.48;;;12.93;;
10896;SDS011;5501;51.176;6.470;2022-12-17T17:35:49;30.58;;;14.48;;
10896;SDS011;5501;51.176;6.470;2022-12-17T17:40:54;22.08;;;12.88;;
10896;SDS011;5501;51.176;6.470;2022-12-17T17:46:02;30.73;;;15.65;;
10896;SDS011;5501;51.176;6.470;2022-12-17T17:51:08;26.63;;;14.43;;
10896;SDS011;5501;51.176;6.470;2022-12-17T17:56:10;28.40;;;14.82;;
10896;SDS011;5501;51.176;6.470;2022-12-17T18:01:19;23.50;;;12.77;;
10896;SDS011;5501;51.176;6.470;2022-12-17T18:06:21;22.00;;;12.05;;
10896;SDS011;5501;51.176;6.470;2022-12-17T18:11:23;25.50;;;13.32;;
10896;SDS011;5501;51.176;6.470;2022-12-17T18:16:30;23.95;;;14.35;;
10896;SDS011;5501;51.176;6.470;2022-12-17T18:21:33;19.85;;;12.30;;
10896;SDS011;5501;51.176;6.470;2022-12-17T18:26:34;27.50;;;14.57;;
10896;SDS011;5501;51.176;6.470;2022-12-17T18:31:38;23.15;;;12.82;;
10896;SDS011;5501;51.176;6.470;2022-12-17T18:36:41;21.17;;;13.25;;
10896;SDS011;5501;51.176;6.470;2022-12-17T18:41:42;25.73;;;13.52;;
10896;SDS011;5501;51.176;6.470;2022-12-17T18:47:03;25.65;;;12.75;;
10896;SDS011;5501;51.176;6.470;2022-12-17T18:52:04;26.58;;;11.93;;
10896;SDS011;5501;51.176;6.470;2022-12-17T18:57:09;29.85;;;15.63;;
10896;SDS011;5501;51.176;6.470;2022-12-17T19:02:11;35.60;;;19.33;;
10896;SDS011;5501;51.176;6.470;2022-12-17T19:07:13;37.20;;;17.73;;
10896;SDS011;5501;51.176;6.470;2022-12-17T19:12:14;31.52;;;13.15;;
10896;SDS011;5501;51.176;6.470;2022-12-17T19:17:16;21.42;;;10.70;;
10896;SDS011;5501;51.176;6.470;2022-12-17T19:22:17;19.55;;;12.93;;
10896;SDS011;5501;51.176;6.470;2022-12-17T19:27:18;21.70;;;10.90;;
10896;SDS011;5501;51.176;6.470;2022-12-17T19:32:20;23.45;;;11.68;;
10896;SDS011;5501;51.176;6.470;2022-12-17T19:37:22;27.25;;;14.45;;
10896;SDS011;5501;51.176;6.470;2022-12-17T19:42:23;24.33;;;11.13;;
10896;SDS011;5501;51.176;6.470;2022-12-17T19:47:25;19.27;;;10.77;;
10896;SDS011;5501;51.176;6.470;2022-12-17T19:52:26;17.08;;;10.27;;
10896;SDS011;5501;51.176;6.470;2022-12-17T19:57:28;19.98;;;10.07;;
10896;SDS011;5501;51.176;6.470;2022-12-17T20:02:29;17.83;;;9.07;;
10896;SDS011;5501;51.176;6.470;2022-12-17T20:07:33;17.65;;;9.10;;
10896;SDS011;5501;51.176;6.470;2022-12-17T20:12:34;19.13;;;9.65;;
10896;SDS011;5501;51.176;6.470;2022-12-17T20:17:36;17.98;;;9.95;;
10896;SDS011;5501;51.176;6.470;2022-12-17T20:22:37;16.55;;;9.98;;
10896;SDS011;5501;51.176;6.470;2022-12-17T20:27:38;19.52;;;10.35;;
10896;SDS011;5501;51.176;6.470;2022-12-17T20:32:40;23.77;;;11.52;;
10896;SDS011;5501;51.176;6.470;2022-12-17T20:37:41;19.95;;;10.85;;
10896;SDS011;5501;51.176;6.470;2022-12-17T20:42:43;21.90;;;9.70;;
10896;SDS011;5501;51.176;6.470;2022-12-17T20:47:44;17.00;;;10.52;;
10896;SDS011;5501;51.176;6.470;2022-12-17T20:52:46;17.75;;;10.77;;
10896;SDS011;5501;51.176;6.470;2022-12-17T20:57:47;21.40;;;9.57;;
10896;SDS011;5501;51.176;6.470;2022-12-17T21:02:48;17.77;;;9.02;;
10896;SDS011;5501;51.176;6.470;2022-12-17T21:07:50;16.65;;;9.27;;
10896;SDS011;5501;51.176;6.470;2022-12-17T21:12:52;20.70;;;9.43;;
10896;SDS011;5501;51.176;6.470;2022-12-17T21:18:12;19.48;;;9.52;;
10896;SDS011;5501;51.176;6.470;2022-12-17T21:23:13;18.88;;;9.93;;
10896;SDS011;5501;51.176;6.470;2022-12-17T21:28:15;17.38;;;8.95;;
10896;SDS011;5501;51.176;6.470;2022-12-17T21:33:16;17.58;;;9.82;;
10896;SDS011;5501;51.176;6.470;2022-12-17T21:38:17;14.43;;;9.20;;
10896;SDS011;5501;51.176;6.470;2022-12-17T21:43:19;26.85;;;11.45;;
10896;SDS011;5501;51.176;6.470;2022-12-17T21:48:20;21.90;;;11.60;;
10896;SDS011;5501;51.176;6.470;2022-12-17T21:53:22;17.77;;;9.77;;
10896;SDS011;5501;51.176;6.470;2022-12-17T21:58:23;18.90;;;9.57;;
10896;SDS011;5501;51.176;6.470;2022-12-17T22:03:24;20.75;;;10.60;;
10896;SDS011;5501;51.176;6.470;2022-12-17T22:08:26;19.20;;;8.93;;
10896;SDS011;5501;51.176;6.470;2022-12-17T22:13:27;18.38;;;9.20;;
10896;SDS011;5501;51.176;6.470;2022-12-17T22:18:48;13.82;;;9.10;;
10896;SDS011;5501;51.176;6.470;2022-12-17T22:23:49;19.33;;;8.07;;
10896;SDS011;5501;51.176;6.470;2022-12-17T22:28:51;15.45;;;8.80;;
10896;SDS011;5501;51.176;6.470;2022-12-17T22:33:52;18.52;;;8.60;;
10896;SDS011;5501;51.176;6.470;2022-12-17T22:39:14;14.13;;;8.68;;
10896;SDS011;5501;51.176;6.470;2022-12-17T22:44:35;18.02;;;9.60;;
10896;SDS011;5501;51.176;6.470;2022-12-17T22:49:53;16.38;;;9.02;;
10896;SDS011;5501;51.176;6.470;2022-12-17T22:54:55;22.27;;;7.15;;
10896;SDS011;5501;51.176;6.470;2022-12-17T22:59:56;19.35;;;9.38;;
10896;SDS011;5501;51.176;6.470;2022-12-17T23:04:58;20.48;;;9.32;;
10896;SDS011;5501;51.176;6.470;2022-12-17T23:09:59;17.80;;;9.10;;
10896;SDS011;5501;51.176;6.470;2022-12-17T23:15:00;12.18;;;7.53;;
10896;SDS011;5501;51.176;6.470;2022-12-17T23:20:02;14.00;;;8.10;;
10896;SDS011;5501;51.176;6.470;2022-12-17T23:25:03;15.98;;;7.93;;
10896;SDS011;5501;51.176;6.470;2022-12-17T23:30:08;14.88;;;8.63;;
10896;SDS011;5501;51.176;6.470;2022-12-17T23:35:09;17.27;;;9.43;;
10896;SDS011;5501;51.176;6.470;2022-12-17T23:40:12;14.68;;;8.60;;
10896;SDS011;5501;51.176;6.470;2022-12-17T23:45:13;11.02;;;6.03;;
10896;SDS011;5501;51.176;6.470;2022-12-17T23:50:15;16.85;;;9.30;;
10896;SDS011;5501;51.176;6.470;2022-12-17T23:55:16;20.77;;;9.13;;
